Data for 09/28/2017

Time Sea-Level Adjusted Pressure Absolute Pressure Temperature Relative Humidity Dew Point   
(mb) (inHg) (mb) (inHg) (C) (F) (%) (C) (F)
00:05 1026 30.3 856 25.28 8.2 46.7 56 0 32.1
00:10 1026 30.3 856 25.28 8.2 46.7 57 0.2 32.4
00:15 1026 30.3 856 25.28 8.3 47 55 -0.1 31.8
00:20 1026 30.3 856 25.28 8.3 47 57 0.3 32.5
00:25 1026 30.3 856 25.28 8.1 46.6 56 -0.1 31.9
00:30 1026 30.3 856 25.28 8.2 46.7 57 0.1 32.1
00:35 1026 30.3 856 25.28 7.6 45.7 58 -0.1 31.8
00:40 1026 30.3 856 25.28 7.9 46.3 56 -0.2 31.7
00:45 1026 30.3 856 25.28 8.1 46.6 55 -0.3 31.4
00:50 1026 30.3 856 25.28 7.7 45.9 58 -0.1 31.8
00:55 1026 30.3 856 25.28 7.3 45.1 59 -0.2 31.7
01:00 1026 30.3 856 25.28 7.2 44.9 58 -0.6 31
01:05 1026 30.3 856 25.28 7.6 45.7 58 -0 31.9
01:10 1026 30.3 856 25.28 7.4 45.3 58 -0.4 31.3
01:15 1026 30.3 856 25.28 8 46.5 56 -0.2 31.6
01:20 1026 30.3 856 25.28 8.2 46.8 54 -0.4 31.2
01:25 1026 30.3 856 25.28 8.5 47.2 54 -0.3 31.5
01:30 1026 30.3 856 25.28 8.3 46.9 55 -0.3 31.5
01:35 1026 30.3 856 25.28 8.1 46.6 55 -0.4 31.3
01:40 1026 30.3 856 25.28 8.1 46.6 55 -0.3 31.5
01:45 1026 30.3 856 25.28 8.1 46.5 55 -0.3 31.4
01:50 1026 30.3 856 25.28 7.7 45.9 57 -0.2 31.6
01:55 1026 30.3 856 25.28 7.4 45.3 57 -0.5 31
02:00 1026 30.3 856 25.28 7.2 44.9 57 -0.7 30.8
02:05 1026 30.3 856 25.28 7.2 44.9 58 -0.6 31
02:10 1026 30.3 856 25.28 7.2 45 58 -0.4 31.3
02:15 1026 30.3 856 25.28 7.6 45.6 57 -0.3 31.4
02:20 1026 30.3 856 25.28 7.3 45.2 60 0 32
02:25 1027 30.33 856 25.28 7 44.6 61 -0.1 31.9
02:30 1027 30.33 856 25.28 7.2 44.9 60 -0 31.9
02:35 1027 30.33 856 25.28 7.1 44.8 61 0.1 32.2
02:40 1027 30.33 856 25.28 7 44.7 60 -0.1 31.7
02:45 1027 30.33 856 25.28 7.2 45 60 -0 32
02:50 1027 30.33 856 25.28 6.9 44.4 61 -0.1 31.9
02:55 1027 30.33 856 25.28 6.7 44 61 -0.3 31.5
03:00 1027 30.33 856 25.28 6.8 44.2 61 -0.2 31.6
03:05 1027 30.33 856 25.28 7.1 44.7 59 -0.5 31.1
03:10 1027 30.33 856 25.28 7 44.6 60 -0.1 31.8
03:15 1027 30.33 856 25.28 6.7 44.1 61 -0.2 31.6
03:20 1027 30.33 856 25.28 6.5 43.7 63 -0.1 31.8
03:25 1027 30.33 856 25.28 6.3 43.4 64 -0 32
03:30 1027 30.33 856 25.28 5.6 42 66 -0.2 31.7
03:35 1027 30.33 856 25.28 5.3 41.5 67 -0.4 31.3
03:40 1027 30.33 856 25.28 5.2 41.4 67 -0.4 31.2
03:45 1027 30.33 856 25.28 5.4 41.8 64 -0.9 30.3
03:50 1027 30.33 856 25.28 6.4 43.5 62 -0.4 31.2
03:55 1027 30.33 856 25.28 6.4 43.5 62 -0.4 31.4
04:00 1027 30.33 856 25.28 6.4 43.5 62 -0.3 31.4
04:05 1027 30.33 856 25.28 6.3 43.3 63 -0.3 31.4
04:10 1027 30.33 856 25.28 6.4 43.6 62 -0.2 31.6
04:15 1027 30.33 856 25.28 6.4 43.5 63 -0.2 31.7
04:20 1027 30.33 856 25.28 5.9 42.7 65 -0 31.9
04:25 1027 30.33 856 25.28 5.5 41.9 66 -0.3 31.5
04:30 1027 30.33 856 25.28 5.7 42.2 64 -0.6 31
04:35 1027 30.33 856 25.28 6.5 43.7 59 -0.8 30.6
04:40 1027 30.33 856 25.28 6.8 44.2 62 0.1 32.2
04:45 1027 30.33 856 25.28 6.2 43.1 62 -0.4 31.2
04:50 1027 30.33 856 25.28 6.3 43.4 62 -0.4 31.3
04:55 1027 30.33 856 25.28 6.1 43 63 -0.3 31.4
05:00 1027 30.33 856 25.28 6.1 42.9 64 -0.3 31.5
05:05 1027 30.33 856 25.28 6 42.8 64 -0.3 31.5
05:10 1027 30.33 856 25.28 5.7 42.3 64 -0.5 31.1
05:15 1027 30.33 856 25.28 5.8 42.5 65 -0.3 31.5
05:20 1027 30.33 856 25.28 5.3 41.6 67 -0.3 31.4
05:25 1027 30.33 856 25.28 5 41.1 67 -0.6 31
05:30 1027 30.33 856 25.28 5.3 41.5 66 -0.5 31
05:35 1027 30.33 856 25.28 5.5 41.9 65 -0.5 31
05:40 1027 30.33 856 25.28 5.6 42.1 66 -0.2 31.7
05:45 1027 30.33 856 25.28 5.4 41.8 66 -0.5 31.2
05:50 1027 30.33 856 25.28 5.4 41.8 66 -0.5 31.2
05:55 1027 30.33 856 25.28 5.4 41.6 67 -0.3 31.4
06:00 1027 30.33 856 25.28 5.3 41.5 67 -0.4 31.3
06:05 1027 30.33 856 25.28 5.3 41.5 66 -0.6 30.9
06:10 1027 30.33 856 25.28 5.4 41.8 66 -0.4 31.3
06:15 1027 30.33 856 25.28 5.1 41.2 67 -0.4 31.2
06:20 1027 30.33 856 25.28 5.2 41.4 65 -0.9 30.4
06:25 1027 30.33 856 25.28 5.7 42.3 64 -0.5 31.1
06:30 1027 30.33 856 25.28 5.7 42.2 64 -0.7 30.8
06:35 1027 30.33 856 25.28 5.8 42.4 64 -0.6 31
06:40 1027 30.33 856 25.28 5.8 42.4 64 -0.5 31.1
06:45 1027 30.33 856 25.28 6 42.8 61 -0.8 30.5
06:50 1027 30.33 856 25.28 6.3 43.4 62 -0.5 31.1
06:55 1027 30.33 856 25.28 6.3 43.4 61 -0.5 31.1
07:00 1027 30.33 856 25.28 6.3 43.4 62 -0.4 31.3
07:05 1027 30.33 856 25.28 6.2 43.1 63 -0.4 31.2
07:10 1027 30.33 856 25.28 6 42.8 63 -0.4 31.2
07:15 1027 30.33 856 25.28 6.1 42.9 63 -0.4 31.2
07:20 1027 30.33 856 25.28 6.4 43.5 62 -0.4 31.3
07:25 1027 30.33 856 25.28 6.7 44 61 -0.3 31.4
07:30 1027 30.33 856 25.28 7 44.7 60 -0.2 31.6
07:35 1027 30.33 856 25.28 7.3 45.1 59 -0.2 31.7
07:40 1027 30.33 856 25.28 7.4 45.2 60 0 32
07:45 1027 30.33 856 25.28 7.7 45.8 58 -0 32
07:50 1027 30.33 856 25.28 7.8 46.1 59 0.2 32.4
07:55 1027 30.33 856 25.28 7.9 46.2 58 0.1 32.1
08:00 1027 30.33 856 25.28 8.1 46.7 57 0.1 32.2
08:05 1027 30.33 856 25.28 8.6 47.4 56 0.4 32.6
08:10 1027 30.33 856 25.28 9 48.2 54 0.2 32.4
08:15 1027 30.33 856 25.28 9.5 49.1 52 0.2 32.4
08:20 1027 30.33 856 25.28 9.9 49.9 50 0 32
08:25 1027 30.33 856 25.28 10.1 50.2 49 0 32
08:30 1027 30.33 856 25.28 10.6 51.1 49 0.2 32.4
08:35 1027 30.33 856 25.28 11.2 52.2 47 0.3 32.5
08:40 1027 30.33 856 25.28 11.6 52.8 46 0.5 32.9
08:45 1027 30.33 856 25.28 11.9 53.5 45 0.5 32.9
08:50 1027 30.33 856 25.28 12.4 54.3 43 0.3 32.5
08:55 1027 30.33 856 25.28 12.5 54.6 44 0.6 33.2
09:00 1027 30.33 856 25.28 12.8 55 42 0.2 32.3
09:05 1027 30.33 856 25.28 12.9 55.1 44 0.9 33.6
09:10 1027 30.33 856 25.28 13.1 55.6 42 0.7 33.3
09:15 1027 30.33 856 25.28 13.4 56.1 41 0.4 32.6
09:20 1027 30.33 856 25.28 13.8 56.8 40 0.6 33
09:25 1027 30.33 856 25.28 13.5 56.4 41 0.5 32.9
09:30 1027 30.33 856 25.28 13.7 56.6 40 0.3 32.6
09:35 1027 30.33 856 25.28 13.9 56.9 39 0.1 32.1
09:40 1027 30.33 856 25.28 13.9 57 40 0.4 32.7
09:45 1027 30.33 856 25.28 13.8 56.8 40 0.6 33.2
09:50 1027 30.33 856 25.28 14.2 57.6 41 1.2 34.1
09:55 1027 30.33 856 25.28 13.6 56.5 41 0.7 33.2
10:00 1027 30.33 856 25.28 14.4 57.9 39 0.6 33.1
10:05 1027 30.33 856 25.28 14.8 58.6 39 0.9 33.6
10:10 1027 30.33 856 25.28 15.2 59.4 38 1.2 34.2
10:15 1027 30.33 856 25.28 15.2 59.3 39 1.5 34.7
10:20 1027 30.33 856 25.28 14.9 58.8 40 1.5 34.8
10:25 1027 30.33 856 25.28 14.3 57.8 44 2.4 36.2
10:30 1027 30.33 856 25.28 14.5 58.1 43 2 35.7
10:35 1027 30.33 856 25.28 14.8 58.7 42 2.1 35.8
10:40 1027 30.33 856 25.28 14.5 58.1 43 2.1 35.8
10:45 1026 30.3 856 25.28 15 59 41 1.8 35.3
10:50 1026 30.3 856 25.28 15.6 60.1 39 1.7 35.1
10:55 1026 30.3 856 25.28 15.5 59.8 42 2.6 36.6
11:00 1026 30.3 856 25.28 15.5 59.9 39 1.9 35.4
11:05 1026 30.3 856 25.28 14.8 58.7 43 2.4 36.3
11:10 1026 30.3 855 25.25 13.8 56.9 43 1.5 34.8
11:15 1026 30.3 855 25.25 15.5 60 39 1.8 35.2
11:20 1026 30.3 855 25.25 15.7 60.2 38 1.5 34.8
11:25 1026 30.3 855 25.25 16 60.7 38 1.9 35.4
11:30 1026 30.3 855 25.25 15.5 59.9 40 2 35.6
11:35 1026 30.3 855 25.25 15.2 59.3 39 1.5 34.8
11:40 1026 30.3 855 25.25 16.4 61.5 37 1.6 34.9
11:45 1026 30.3 855 25.25 17.2 63 35 1.9 35.4
11:50 1026 30.3 855 25.25 17.5 63.4 36 2.4 36.4
11:55 1026 30.3 855 25.25 17 62.6 36 2 35.5
12:00 1026 30.3 855 25.25 16.3 61.3 37 1.7 35
12:05 1026 30.3 855 25.25 16.2 61.2 36 1.3 34.3
12:10 1026 30.3 855 25.25 16.8 62.3 36 1.6 34.9
12:15 1026 30.3 855 25.25 17.6 63.6 33 1.2 34.2
12:20 1026 30.3 855 25.25 17.9 64.2 34 1.9 35.4
12:25 1026 30.3 855 25.25 17.2 63 35 1.7 35.1
12:30 1026 30.3 855 25.25 16.8 62.3 35 1.4 34.6
12:35 1025 30.27 855 25.25 18.1 64.6 32 1.3 34.3
12:40 1025 30.27 855 25.25 18.9 66.1 31 1.7 35.1
12:45 1025 30.27 855 25.25 19.1 66.3 31 1.8 35.2
12:50 1025 30.27 854 25.22 19.1 66.3 30 1.1 34
12:55 1025 30.27 854 25.22 19.2 66.6 29 1.1 34
13:00 1025 30.27 854 25.22 18.3 65 32 1.3 34.4
13:05 1025 30.27 854 25.22 17.6 63.6 33 1.4 34.5
13:10 1025 30.27 854 25.22 17.5 63.5 32 0.6 33.1
13:15 1025 30.27 854 25.22 17.6 63.8 32 0.9 33.6
13:20 1025 30.27 854 25.22 18.7 65.7 30 1.1 34
13:25 1025 30.27 854 25.22 19.1 66.4 30 1.3 34.3
13:30 1025 30.27 854 25.22 19.8 67.7 28 1.2 34.1
13:35 1025 30.27 854 25.22 20.1 68.2 28 1 33.8
13:40 1024 30.24 854 25.22 19.4 67 29 1 33.8
13:45 1024 30.24 854 25.22 19.6 67.2 30 1.9 35.4
13:50 1024 30.24 854 25.22 19.7 67.4 29 1.5 34.7
13:55 1024 30.24 854 25.22 20.1 68.2 27 0.6 33.2
14:00 1024 30.24 854 25.22 20.4 68.8 26 0.6 33.1
14:05 1024 30.24 854 25.22 20.1 68.2 30 2.1 35.8
14:10 1024 30.24 853 25.19 19.3 66.7 29 0.9 33.6
14:15 1024 30.24 853 25.19 19.9 67.8 28 1.1 34
14:20 1024 30.24 853 25.19 20.5 68.8 27 1.2 34.1
14:25 1024 30.24 853 25.19 20.8 69.4 26 0.9 33.7
14:30 1024 30.24 853 25.19 20.5 68.9 28 1.5 34.8
14:35 1024 30.24 853 25.19 19.4 66.9 28 0.6 33.1
14:40 1024 30.24 853 25.19 19 66.2 29 0.6 33.1
14:45 1024 30.24 853 25.19 19.2 66.5 28 0.2 32.4
14:50 1024 30.24 853 25.19 20.2 68.4 27 0.6 33.1
14:55 1024 30.24 853 25.19 21.1 69.9 25 0.4 32.7
15:00 1024 30.24 853 25.19 20.3 68.6 27 0.8 33.5
15:05 1024 30.24 853 25.19 19.7 67.4 28 0.7 33.3
15:10 1024 30.24 853 25.19 20 68 27 0.8 33.4
15:15 1024 30.24 853 25.19 19.7 67.5 26 0.1 32.1
15:20 1024 30.24 853 25.19 20.7 69.2 25 0.3 32.5
15:25 1024 30.24 853 25.19 21.3 70.4 25 0.5 32.9
15:30 1024 30.24 853 25.19 20.3 68.5 23 -1.2 29.8
15:35 1024 30.24 853 25.19 19.8 67.6 23 -1.8 28.8
15:40 1024 30.24 853 25.19 19.5 67 23 -2.3 27.8
15:45 1024 30.24 853 25.19 19.6 67.4 23 -2.1 28.2
15:50 1024 30.24 853 25.19 19.6 67.3 23 -2.1 28.3
15:55 1024 30.24 853 25.19 19.8 67.6 23 -2 28.4
16:00 1024 30.24 853 25.19 19.5 67.2 24 -1.6 29.2
16:05 1024 30.24 853 25.19 19.5 67.1 24 -1.4 29.5
16:10 1024 30.24 853 25.19 19.5 67.1 23 -1.9 28.7
16:15 1024 30.24 853 25.19 19 66.2 24 -2 28.5
16:20 1024 30.24 853 25.19 19.1 66.3 24 -1.8 28.7
16:25 1023 30.21 853 25.19 19 66.2 26 -1 30.2
16:30 1023 30.21 853 25.19 18.8 65.8 26 -0.9 30.3
16:35 1023 30.21 853 25.19 18.6 65.5 26 -1 30.3
16:40 1023 30.21 853 25.19 18.6 65.4 27 -0.6 30.9
16:45 1023 30.21 853 25.19 18.5 65.3 28 -0.5 31.2
16:50 1023 30.21 853 25.19 18.4 65 27 -0.6 30.9
16:55 1023 30.21 853 25.19 18.2 64.7 27 -0.8 30.5
17:00 1023 30.21 853 25.19 18 64.4 28 -0.5 31.1
17:05 1023 30.21 853 25.19 17.9 64.2 29 -0.4 31.2
17:10 1023 30.21 853 25.19 17.8 64 29 -0.5 31.1
17:15 1023 30.21 853 25.19 17.7 63.9 29 -0.4 31.2
17:20 1023 30.21 853 25.19 17.6 63.8 29 -0.6 30.9
17:25 1023 30.21 853 25.19 17.4 63.4 29 -0.6 31
17:30 1023 30.21 853 25.19 17.3 63.2 30 -0.5 31.1
17:35 1023 30.21 853 25.19 17.1 62.9 30 -0.3 31.4
17:40 1023 30.21 853 25.19 17 62.5 31 -0.2 31.6
17:45 1023 30.21 853 25.19 16.8 62.2 31 -0.3 31.5
17:50 1023 30.21 853 25.19 16.6 61.9 31 -0.3 31.5
17:55 1023 30.21 853 25.19 16.5 61.6 32 -0.2 31.7
18:00 1023 30.21 853 25.19 16.3 61.3 33 -0.1 31.9
18:05 1023 30.21 852 25.16 16.1 60.9 34 0.2 32.3
18:10 1023 30.21 852 25.16 15.8 60.4 33 -0.2 31.7
18:15 1023 30.21 853 25.19 15.6 60.2 34 -0.2 31.7
18:20 1023 30.21 853 25.19 15.5 59.8 34 -0.3 31.4
18:25 1023 30.21 853 25.19 15.2 59.4 34 -0.3 31.4
18:30 1023 30.21 853 25.19 15 59 35 -0.3 31.4
18:35 1023 30.21 853 25.19 14.8 58.6 35 -0.5 31.2
18:40 1023 30.21 853 25.19 14.7 58.5 34 -0.7 30.7
18:45 1023 30.21 853 25.19 14.6 58.3 34 -0.8 30.6
18:50 1023 30.21 853 25.19 14.6 58.2 35 -0.8 30.6
18:55 1023 30.21 853 25.19 14.5 58.1 33 -1.4 29.5
19:00 1023 30.21 853 25.19 14.6 58.3 33 -1.4 29.5
19:05 1023 30.21 853 25.19 14.6 58.2 33 -1.5 29.3
19:10 1023 30.21 853 25.19 14.5 58.1 32 -1.8 28.7
19:15 1023 30.21 853 25.19 14.5 58 32 -2.1 28.3
19:20 1023 30.21 853 25.19 14.5 58 32 -2.2 28.1
19:25 1023 30.21 853 25.19 14.5 58.2 31 -2.2 28
19:30 1023 30.21 853 25.19 14.5 58.1 31 -2.4 27.7
19:35 1023 30.21 853 25.19 14.4 57.9 31 -2.4 27.6
19:40 1023 30.21 853 25.19 14.4 57.9 31 -2.5 27.5
19:45 1023 30.21 853 25.19 14.4 57.9 31 -2.4 27.6
19:50 1023 30.21 853 25.19 14.3 57.8 30 -2.8 27
19:55 1023 30.21 853 25.19 14.4 57.9 31 -2.6 27.3
20:00 1023 30.21 853 25.19 14.3 57.8 31 -2.6 27.4
20:05 1023 30.21 853 25.19 14.3 57.7 31 -2.7 27.2
20:10 1023 30.21 853 25.19 14.3 57.7 31 -2.6 27.3
20:15 1023 30.21 853 25.19 14.3 57.7 31 -2.6 27.4
20:20 1023 30.21 853 25.19 14.2 57.5 31 -2.7 27.2
20:25 1023 30.21 853 25.19 14.2 57.5 31 -2.6 27.3
20:30 1023 30.21 852 25.16 14.1 57.4 31 -2.7 27.1
20:35 1023 30.21 853 25.19 14 57.1 32 -2.6 27.3
20:40 1023 30.21 853 25.19 13.8 56.9 32 -2.6 27.3
20:45 1023 30.21 852 25.16 13.7 56.6 32 -2.5 27.5
20:50 1023 30.21 852 25.16 13.5 56.4 33 -2.4 27.6
20:55 1023 30.21 852 25.16 13.4 56 33 -2.4 27.6
21:00 1023 30.21 852 25.16 13.2 55.8 34 -2.4 27.7
21:05 1023 30.21 852 25.16 13.2 55.8 34 -2.3 27.8
21:10 1023 30.21 852 25.16 13.2 55.7 34 -2.3 27.9
21:15 1023 30.21 852 25.16 13.2 55.7 34 -2.4 27.7
21:20 1023 30.21 852 25.16 13.2 55.7 34 -2.3 27.9
21:25 1023 30.21 852 25.16 13 55.5 35 -2.1 28.3
21:30 1023 30.21 852 25.16 13 55.4 35 -1.9 28.6
21:35 1023 30.21 852 25.16 12.8 55.1 36 -1.9 28.6
21:40 1023 30.21 852 25.16 12.6 54.7 36 -1.8 28.7
21:45 1023 30.21 852 25.16 12.6 54.7 37 -1.8 28.8
21:50 1023 30.21 852 25.16 12.6 54.7 37 -1.8 28.8
21:55 1023 30.21 852 25.16 12.5 54.6 37 -1.5 29.2
22:00 1023 30.21 852 25.16 12.4 54.3 37 -1.7 28.9
22:05 1023 30.21 852 25.16 12.4 54.4 38 -1.4 29.6
22:10 1023 30.21 852 25.16 12.3 54.1 38 -1.5 29.3
22:15 1023 30.21 852 25.16 12.3 54.1 38 -1.4 29.4
22:20 1023 30.21 852 25.16 12.4 54.3 38 -1.4 29.4
22:25 1023 30.21 852 25.16 12.4 54.3 39 -1.3 29.7
22:30 1023 30.21 852 25.16 12.3 54.1 39 -1.2 29.9
22:35 1023 30.21 852 25.16 12.3 54.1 39 -1.2 29.9
22:40 1023 30.21 852 25.16 12.3 54.1 40 -1 30.2
22:45 1023 30.21 852 25.16 12.2 54 40 -1.1 30.1
22:50 1023 30.21 852 25.16 12.4 54.2 40 -1 30.3
22:55 1023 30.21 852 25.16 12.4 54.2 40 -0.8 30.6
23:00 1023 30.21 852 25.16 12.3 54.1 40 -0.8 30.6
23:05 1023 30.21 852 25.16 12.4 54.2 41 -0.6 31
23:10 1023 30.21 852 25.16 12.2 54 41 -0.5 31.1
23:15 1023 30.21 852 25.16 12.3 54.1 41 -0.5 31
23:20 1023 30.21 852 25.16 12.4 54.3 41 -0.4 31.2
23:25 1023 30.21 852 25.16 12.3 54.2 41 -0.5 31.1
23:30 1023 30.21 852 25.16 12.4 54.3 41 -0.4 31.3
23:35 1023 30.21 852 25.16 12.4 54.3 41 -0.4 31.3
23:40 1023 30.21 852 25.16 12.4 54.3 41 -0.4 31.3
23:45 1023 30.21 852 25.16 12.4 54.3 42 -0.2 31.7
23:50 1023 30.21 852 25.16 12.4 54.2 42 -0.2 31.6
23:55 1023 30.21 852 25.16 12.4 54.3 41 -0.3 31.4
24:00 1023 30.21 852 25.16 12.5 54.5 41 -0.4 31.3